Terminal Aerodrome Forecast
Issued by NWS

Home | Current Version | Previous Version | Text Only | Print | Product List | Glossary On
Versions: 1 2 3 4 5 6 7 8 9 10 11 12
000
FTUS44 KLZK 261131
TAFADF
TAF
KADF 261131Z 2612/2712 VRB03KT P6SM SCT050 BKN250
      TEMPO 2612/2613 4SM BR FEW005
     FM261700 08005KT P6SM VCTS SCT050CB SCT250
     FM270100 11005KT P6SM FEW030 SCT100 BKN250
      AMD NOT SKED=

USA.gov is the U.S. government's official web portal to all federal, state and local government web resources and services.